Grand View, Wisconsin
Current Conditions -  °F | °C
As of 1:15 PM on Thursday 27 Nov 2014 (Local Time) from KASX Reporting Station
Scattered Clouds Scattered Clouds  
Wind Chill:   Ceiling: Unl
Heat Index: 11°   Visibility: 10mi
Dew Point:   Wind: 7mph
Humidity: 64%   Direction: 260°W
Pressure: 30.42"   Gusts: NA
Location:  46.37°N, 91.11°W
Report Text: KASX 271915Z AUTO 26006KT 10SM SCT024 M12/M17 A3042 RMK AO2 T11171172
Loading
Personal Weather Stations






























Interactive Weather Map New forecast layout! Learn more

10-Day Weather Forecast

Advertisements
Track Severe Weather on mobile